sensor_id;sensor_type;location;lat;lon;timestamp;temperature;humidity
38263;DHT22;24054;50.128;19.730;2023-04-22T00:00:25;21.00;49.70
38263;DHT22;24054;50.128;19.730;2023-04-22T00:02:53;21.00;49.70
38263;DHT22;24054;50.128;19.730;2023-04-22T00:05:21;21.00;49.70
38263;DHT22;24054;50.128;19.730;2023-04-22T00:07:50;21.00;49.70
38263;DHT22;24054;50.128;19.730;2023-04-22T00:10:17;21.00;49.70
38263;DHT22;24054;50.128;19.730;2023-04-22T00:12:45;20.90;49.60
38263;DHT22;24054;50.128;19.730;2023-04-22T00:15:12;20.90;49.70
38263;DHT22;24054;50.128;19.730;2023-04-22T00:17:40;20.90;49.70
38263;DHT22;24054;50.128;19.730;2023-04-22T00:20:09;20.90;49.70
38263;DHT22;24054;50.128;19.730;2023-04-22T00:22:36;20.90;49.80
38263;DHT22;24054;50.128;19.730;2023-04-22T00:25:05;20.90;49.80
38263;DHT22;24054;50.128;19.730;2023-04-22T00:27:33;20.90;49.80
38263;DHT22;24054;50.128;19.730;2023-04-22T00:29:59;20.90;49.80
38263;DHT22;24054;50.128;19.730;2023-04-22T00:32:26;20.90;49.80
38263;DHT22;24054;50.128;19.730;2023-04-22T00:34:56;20.90;49.80
38263;DHT22;24054;50.128;19.730;2023-04-22T00:37:23;20.90;49.90
38263;DHT22;24054;50.128;19.730;2023-04-22T00:39:50;20.90;49.90
38263;DHT22;24054;50.128;19.730;2023-04-22T00:42:18;20.80;49.80
38263;DHT22;24054;50.128;19.730;2023-04-22T00:44:47;20.90;49.90
38263;DHT22;24054;50.128;19.730;2023-04-22T00:47:15;20.90;49.90
38263;DHT22;24054;50.128;19.730;2023-04-22T00:49:43;20.90;49.90
38263;DHT22;24054;50.128;19.730;2023-04-22T00:52:10;20.90;50.00
38263;DHT22;24054;50.128;19.730;2023-04-22T00:54:37;20.80;49.90
38263;DHT22;24054;50.128;19.730;2023-04-22T00:57:04;20.80;50.00
38263;DHT22;24054;50.128;19.730;2023-04-22T00:59:33;20.80;50.00
38263;DHT22;24054;50.128;19.730;2023-04-22T01:02:00;20.80;50.00
38263;DHT22;24054;50.128;19.730;2023-04-22T01:04:27;20.80;50.00
38263;DHT22;24054;50.128;19.730;2023-04-22T01:06:56;20.90;50.00
38263;DHT22;24054;50.128;19.730;2023-04-22T01:09:23;20.80;50.00
38263;DHT22;24054;50.128;19.730;2023-04-22T01:11:50;20.80;50.00
38263;DHT22;24054;50.128;19.730;2023-04-22T01:14:17;20.80;50.00
38263;DHT22;24054;50.128;19.730;2023-04-22T01:16:46;20.80;50.00
38263;DHT22;24054;50.128;19.730;2023-04-22T01:19:13;20.80;50.10
38263;DHT22;24054;50.128;19.730;2023-04-22T01:21:42;20.80;50.10
38263;DHT22;24054;50.128;19.730;2023-04-22T01:24:11;20.80;50.10
38263;DHT22;24054;50.128;19.730;2023-04-22T01:26:38;20.80;50.10
38263;DHT22;24054;50.128;19.730;2023-04-22T01:29:05;20.80;50.10
38263;DHT22;24054;50.128;19.730;2023-04-22T01:31:32;20.80;50.10
38263;DHT22;24054;50.128;19.730;2023-04-22T01:34:00;20.80;50.10
38263;DHT22;24054;50.128;19.730;2023-04-22T01:36:27;20.80;50.10
38263;DHT22;24054;50.128;19.730;2023-04-22T01:38:54;20.80;50.80
38263;DHT22;24054;50.128;19.730;2023-04-22T01:41:23;20.80;50.20
38263;DHT22;24054;50.128;19.730;2023-04-22T01:43:52;20.70;50.10
38263;DHT22;24054;50.128;19.730;2023-04-22T01:46:19;20.70;50.10
38263;DHT22;24054;50.128;19.730;2023-04-22T01:48:46;20.70;50.10
38263;DHT22;24054;50.128;19.730;2023-04-22T01:51:16;20.70;50.10
38263;DHT22;24054;50.128;19.730;2023-04-22T01:53:44;20.70;50.20
38263;DHT22;24054;50.128;19.730;2023-04-22T01:56:11;20.70;50.10
38263;DHT22;24054;50.128;19.730;2023-04-22T01:58:40;20.70;50.20
38263;DHT22;24054;50.128;19.730;2023-04-22T02:01:09;20.70;50.20
38263;DHT22;24054;50.128;19.730;2023-04-22T02:03:36;20.70;50.20
38263;DHT22;24054;50.128;19.730;2023-04-22T02:06:03;20.70;50.20
38263;DHT22;24054;50.128;19.730;2023-04-22T02:08:30;20.70;50.20
38263;DHT22;24054;50.128;19.730;2023-04-22T02:10:57;20.70;50.20
38263;DHT22;24054;50.128;19.730;2023-04-22T02:13:25;20.70;50.20
38263;DHT22;24054;50.128;19.730;2023-04-22T02:15:53;20.70;50.20
38263;DHT22;24054;50.128;19.730;2023-04-22T02:18:20;20.70;50.20
38263;DHT22;24054;50.128;19.730;2023-04-22T02:20:48;20.60;50.20
38263;DHT22;24054;50.128;19.730;2023-04-22T02:23:15;20.60;50.20
38263;DHT22;24054;50.128;19.730;2023-04-22T02:25:47;20.60;50.20
38263;DHT22;24054;50.128;19.730;2023-04-22T02:28:14;20.60;50.20
38263;DHT22;24054;50.128;19.730;2023-04-22T02:30:41;20.60;50.20
38263;DHT22;24054;50.128;19.730;2023-04-22T02:33:10;20.60;50.20
38263;DHT22;24054;50.128;19.730;2023-04-22T02:35:37;20.60;50.20
38263;DHT22;24054;50.128;19.730;2023-04-22T02:38:04;20.60;50.30
38263;DHT22;24054;50.128;19.730;2023-04-22T02:40:30;20.70;50.30
38263;DHT22;24054;50.128;19.730;2023-04-22T02:42:57;20.70;50.30
38263;DHT22;24054;50.128;19.730;2023-04-22T02:45:24;20.70;50.30
38263;DHT22;24054;50.128;19.730;2023-04-22T02:47:51;20.60;50.30
38263;DHT22;24054;50.128;19.730;2023-04-22T02:50:20;20.60;50.30
38263;DHT22;24054;50.128;19.730;2023-04-22T02:52:47;20.60;50.30
38263;DHT22;24054;50.128;19.730;2023-04-22T02:55:14;20.60;50.30
38263;DHT22;24054;50.128;19.730;2023-04-22T02:57:41;20.60;50.30
38263;DHT22;24054;50.128;19.730;2023-04-22T03:00:08;20.60;50.30
38263;DHT22;24054;50.128;19.730;2023-04-22T03:02:36;20.60;50.30
38263;DHT22;24054;50.128;19.730;2023-04-22T03:05:05;20.60;50.30
38263;DHT22;24054;50.128;19.730;2023-04-22T03:07:33;20.60;50.30
38263;DHT22;24054;50.128;19.730;2023-04-22T03:10:00;20.60;50.30
38263;DHT22;24054;50.128;19.730;2023-04-22T03:12:27;20.60;50.30
38263;DHT22;24054;50.128;19.730;2023-04-22T03:14:54;20.60;50.30
38263;DHT22;24054;50.128;19.730;2023-04-22T03:17:21;20.60;50.40
38263;DHT22;24054;50.128;19.730;2023-04-22T03:19:50;20.60;50.40
38263;DHT22;24054;50.128;19.730;2023-04-22T03:22:17;20.60;50.30
38263;DHT22;24054;50.128;19.730;2023-04-22T03:24:45;20.60;50.40
38263;DHT22;24054;50.128;19.730;2023-04-22T03:27:12;20.60;50.40
38263;DHT22;24054;50.128;19.730;2023-04-22T03:29:39;20.60;50.40
38263;DHT22;24054;50.128;19.730;2023-04-22T03:32:06;20.60;50.40
38263;DHT22;24054;50.128;19.730;2023-04-22T03:34:33;20.50;50.30
38263;DHT22;24054;50.128;19.730;2023-04-22T03:37:00;20.50;50.30
38263;DHT22;24054;50.128;19.730;2023-04-22T03:39:27;20.60;50.40
38263;DHT22;24054;50.128;19.730;2023-04-22T03:41:55;20.50;50.40
38263;DHT22;24054;50.128;19.730;2023-04-22T03:44:22;20.50;50.30
38263;DHT22;24054;50.128;19.730;2023-04-22T03:46:49;20.50;50.40
38263;DHT22;24054;50.128;19.730;2023-04-22T03:49:16;20.50;50.30
38263;DHT22;24054;50.128;19.730;2023-04-22T03:51:43;20.50;50.30
38263;DHT22;24054;50.128;19.730;2023-04-22T03:54:10;20.50;50.30
38263;DHT22;24054;50.128;19.730;2023-04-22T03:56:36;20.50;50.40
38263;DHT22;24054;50.128;19.730;2023-04-22T03:59:05;20.50;50.40
38263;DHT22;24054;50.128;19.730;2023-04-22T04:01:32;20.50;50.30
38263;DHT22;24054;50.128;19.730;2023-04-22T04:03:59;20.50;50.40
38263;DHT22;24054;50.128;19.730;2023-04-22T04:06:26;20.50;50.40
38263;DHT22;24054;50.128;19.730;2023-04-22T04:08:53;20.50;50.40
38263;DHT22;24054;50.128;19.730;2023-04-22T04:11:20;20.50;50.40
38263;DHT22;24054;50.128;19.730;2023-04-22T04:13:46;20.50;50.40
38263;DHT22;24054;50.128;19.730;2023-04-22T04:16:18;20.50;50.40
38263;DHT22;24054;50.128;19.730;2023-04-22T04:18:45;20.40;50.40
38263;DHT22;24054;50.128;19.730;2023-04-22T04:21:15;20.50;50.40
38263;DHT22;24054;50.128;19.730;2023-04-22T04:23:41;20.40;50.40
38263;DHT22;24054;50.128;19.730;2023-04-22T04:26:09;20.40;50.40
38263;DHT22;24054;50.128;19.730;2023-04-22T04:28:36;20.40;50.40
38263;DHT22;24054;50.128;19.730;2023-04-22T04:31:03;20.40;50.40
38263;DHT22;24054;50.128;19.730;2023-04-22T04:33:36;20.40;50.40
38263;DHT22;24054;50.128;19.730;2023-04-22T04:36:04;20.40;50.40
38263;DHT22;24054;50.128;19.730;2023-04-22T04:38:35;20.40;50.50
38263;DHT22;24054;50.128;19.730;2023-04-22T04:41:06;20.40;50.50
38263;DHT22;24054;50.128;19.730;2023-04-22T04:43:34;20.40;50.50
38263;DHT22;24054;50.128;19.730;2023-04-22T04:46:01;20.40;50.50
38263;DHT22;24054;50.128;19.730;2023-04-22T04:48:28;20.40;50.50
38263;DHT22;24054;50.128;19.730;2023-04-22T04:50:56;20.40;50.50
38263;DHT22;24054;50.128;19.730;2023-04-22T04:53:23;20.40;50.60
38263;DHT22;24054;50.128;19.730;2023-04-22T04:55:50;20.40;50.60
38263;DHT22;24054;50.128;19.730;2023-04-22T04:58:17;20.40;50.60
38263;DHT22;24054;50.128;19.730;2023-04-22T05:00:47;20.40;50.70
38263;DHT22;24054;50.128;19.730;2023-04-22T05:03:14;20.40;50.70
38263;DHT22;24054;50.128;19.730;2023-04-22T05:05:41;20.40;50.70
38263;DHT22;24054;50.128;19.730;2023-04-22T05:08:09;20.40;50.70
38263;DHT22;24054;50.128;19.730;2023-04-22T05:10:36;20.40;50.70
38263;DHT22;24054;50.128;19.730;2023-04-22T05:13:03;20.50;51.30
38263;DHT22;24054;50.128;19.730;2023-04-22T05:15:33;20.40;51.20
38263;DHT22;24054;50.128;19.730;2023-04-22T05:18:00;20.40;50.70
38263;DHT22;24054;50.128;19.730;2023-04-22T05:20:27;20.40;50.70
38263;DHT22;24054;50.128;19.730;2023-04-22T05:22:54;20.40;50.80
38263;DHT22;24054;50.128;19.730;2023-04-22T05:25:22;20.40;50.80
38263;DHT22;24054;50.128;19.730;2023-04-22T05:27:51;20.50;50.90
38263;DHT22;24054;50.128;19.730;2023-04-22T05:30:19;20.40;50.90
38263;DHT22;24054;50.128;19.730;2023-04-22T05:32:45;20.50;50.90
38263;DHT22;24054;50.128;19.730;2023-04-22T05:35:12;20.50;51.00
38263;DHT22;24054;50.128;19.730;2023-04-22T05:37:39;20.50;51.00
38263;DHT22;24054;50.128;19.730;2023-04-22T05:40:07;20.50;51.00
38263;DHT22;24054;50.128;19.730;2023-04-22T05:42:36;20.60;51.10
38263;DHT22;24054;50.128;19.730;2023-04-22T05:45:03;20.60;51.10
38263;DHT22;24054;50.128;19.730;2023-04-22T05:47:31;20.60;51.10
38263;DHT22;24054;50.128;19.730;2023-04-22T05:49:58;20.60;51.10
38263;DHT22;24054;50.128;19.730;2023-04-22T05:52:25;20.60;51.10
38263;DHT22;24054;50.128;19.730;2023-04-22T05:54:52;20.60;51.10
38263;DHT22;24054;50.128;19.730;2023-04-22T05:57:19;20.60;51.20
38263;DHT22;24054;50.128;19.730;2023-04-22T05:59:48;20.70;51.20
38263;DHT22;24054;50.128;19.730;2023-04-22T06:02:15;20.70;51.20
38263;DHT22;24054;50.128;19.730;2023-04-22T06:04:42;20.70;51.30
38263;DHT22;24054;50.128;19.730;2023-04-22T06:07:10;20.70;51.20
38263;DHT22;24054;50.128;19.730;2023-04-22T06:09:37;20.70;51.30
38263;DHT22;24054;50.128;19.730;2023-04-22T06:12:07;20.70;51.30
38263;DHT22;24054;50.128;19.730;2023-04-22T06:14:36;20.70;51.30
38263;DHT22;24054;50.128;19.730;2023-04-22T06:17:04;20.80;51.30
38263;DHT22;24054;50.128;19.730;2023-04-22T06:19:31;20.80;51.30
38263;DHT22;24054;50.128;19.730;2023-04-22T06:21:58;20.80;51.40
38263;DHT22;24054;50.128;19.730;2023-04-22T06:24:25;20.80;51.30
38263;DHT22;24054;50.128;19.730;2023-04-22T06:26:52;20.80;51.30
38263;DHT22;24054;50.128;19.730;2023-04-22T06:29:19;20.90;51.50
38263;DHT22;24054;50.128;19.730;2023-04-22T06:31:46;20.90;51.80
38263;DHT22;24054;50.128;19.730;2023-04-22T06:34:15;20.90;51.90
38263;DHT22;24054;50.128;19.730;2023-04-22T06:36:43;20.90;52.10
38263;DHT22;24054;50.128;19.730;2023-04-22T06:39:10;21.00;52.20
38263;DHT22;24054;50.128;19.730;2023-04-22T06:41:37;21.00;52.30
38263;DHT22;24054;50.128;19.730;2023-04-22T06:44:04;21.00;52.40
38263;DHT22;24054;50.128;19.730;2023-04-22T06:46:31;21.00;52.50
38263;DHT22;24054;50.128;19.730;2023-04-22T06:48:58;21.00;52.70
38263;DHT22;24054;50.128;19.730;2023-04-22T06:51:26;21.10;52.80
38263;DHT22;24054;50.128;19.730;2023-04-22T06:53:53;21.10;52.90
38263;DHT22;24054;50.128;19.730;2023-04-22T06:56:21;21.10;53.10
38263;DHT22;24054;50.128;19.730;2023-04-22T06:58:48;21.10;53.20
38263;DHT22;24054;50.128;19.730;2023-04-22T07:01:15;21.20;53.40
38263;DHT22;24054;50.128;19.730;2023-04-22T07:03:42;21.20;53.30
38263;DHT22;24054;50.128;19.730;2023-04-22T07:06:09;21.20;53.50
38263;DHT22;24054;50.128;19.730;2023-04-22T07:08:38;21.30;53.60
38263;DHT22;24054;50.128;19.730;2023-04-22T07:11:05;21.30;53.50
38263;DHT22;24054;50.128;19.730;2023-04-22T07:13:32;21.30;53.10
38263;DHT22;24054;50.128;19.730;2023-04-22T07:15:59;21.30;52.50
38263;DHT22;24054;50.128;19.730;2023-04-22T07:18:27;21.30;52.60
38263;DHT22;24054;50.128;19.730;2023-04-22T07:20:54;21.30;52.50
38263;DHT22;24054;50.128;19.730;2023-04-22T07:23:21;21.30;52.40
38263;DHT22;24054;50.128;19.730;2023-04-22T07:25:50;21.30;52.30
38263;DHT22;24054;50.128;19.730;2023-04-22T07:28:17;21.30;51.90
38263;DHT22;24054;50.128;19.730;2023-04-22T07:30:44;21.30;51.80
38263;DHT22;24054;50.128;19.730;2023-04-22T07:33:11;21.30;51.60
38263;DHT22;24054;50.128;19.730;2023-04-22T07:35:38;21.20;51.30
38263;DHT22;24054;50.128;19.730;2023-04-22T07:38:05;21.20;51.00
38263;DHT22;24054;50.128;19.730;2023-04-22T07:40:33;21.20;50.80
38263;DHT22;24054;50.128;19.730;2023-04-22T07:43:01;21.20;50.40
38263;DHT22;24054;50.128;19.730;2023-04-22T07:45:30;21.20;50.10
38263;DHT22;24054;50.128;19.730;2023-04-22T07:47:57;21.20;50.00
38263;DHT22;24054;50.128;19.730;2023-04-22T07:50:24;21.20;49.70
38263;DHT22;24054;50.128;19.730;2023-04-22T07:52:51;21.20;49.50
38263;DHT22;24054;50.128;19.730;2023-04-22T07:55:18;21.10;49.00
38263;DHT22;24054;50.128;19.730;2023-04-22T07:57:45;21.10;48.40
38263;DHT22;24054;50.128;19.730;2023-04-22T08:00:14;21.10;48.30
38263;DHT22;24054;50.128;19.730;2023-04-22T08:02:41;21.10;47.90
38263;DHT22;24054;50.128;19.730;2023-04-22T08:05:09;21.10;47.90
38263;DHT22;24054;50.128;19.730;2023-04-22T08:07:36;21.10;47.60
38263;DHT22;24054;50.128;19.730;2023-04-22T08:10:05;21.00;47.20
38263;DHT22;24054;50.128;19.730;2023-04-22T08:12:32;21.10;47.20
38263;DHT22;24054;50.128;19.730;2023-04-22T08:14:59;21.00;46.90
38263;DHT22;24054;50.128;19.730;2023-04-22T08:17:27;21.10;46.60
38263;DHT22;24054;50.128;19.730;2023-04-22T08:19:54;21.10;45.90
38263;DHT22;24054;50.128;19.730;2023-04-22T08:22:21;21.00;45.20
38263;DHT22;24054;50.128;19.730;2023-04-22T08:24:50;21.10;45.60
38263;DHT22;24054;50.128;19.730;2023-04-22T08:27:17;21.10;45.60
38263;DHT22;24054;50.128;19.730;2023-04-22T08:29:47;21.10;45.40
38263;DHT22;24054;50.128;19.730;2023-04-22T08:32:14;21.10;44.60
38263;DHT22;24054;50.128;19.730;2023-04-22T08:34:45;21.10;43.80
38263;DHT22;24054;50.128;19.730;2023-04-22T08:37:13;21.10;43.80
38263;DHT22;24054;50.128;19.730;2023-04-22T08:39:40;21.10;42.80
38263;DHT22;24054;50.128;19.730;2023-04-22T08:42:07;21.20;43.70
38263;DHT22;24054;50.128;19.730;2023-04-22T08:44:34;21.20;43.60
38263;DHT22;24054;50.128;19.730;2023-04-22T08:47:02;21.20;43.00
38263;DHT22;24054;50.128;19.730;2023-04-22T08:49:34;21.20;42.00
38263;DHT22;24054;50.128;19.730;2023-04-22T08:52:03;21.20;41.00
38263;DHT22;24054;50.128;19.730;2023-04-22T08:54:30;21.30;41.30
38263;DHT22;24054;50.128;19.730;2023-04-22T08:56:59;21.30;41.40
38263;DHT22;24054;50.128;19.730;2023-04-22T08:59:27;21.30;41.30
38263;DHT22;24054;50.128;19.730;2023-04-22T09:01:54;21.30;41.50
38263;DHT22;24054;50.128;19.730;2023-04-22T09:04:22;21.40;41.30
38263;DHT22;24054;50.128;19.730;2023-04-22T09:06:50;21.40;40.50
38263;DHT22;24054;50.128;19.730;2023-04-22T09:09:19;21.40;40.60
38263;DHT22;24054;50.128;19.730;2023-04-22T09:11:46;21.40;40.70
38263;DHT22;24054;50.128;19.730;2023-04-22T09:14:13;21.40;40.40
38263;DHT22;24054;50.128;19.730;2023-04-22T09:16:46;21.50;40.60
38263;DHT22;24054;50.128;19.730;2023-04-22T09:19:16;21.50;40.70
38263;DHT22;24054;50.128;19.730;2023-04-22T09:21:43;21.60;40.40
38263;DHT22;24054;50.128;19.730;2023-04-22T09:24:14;21.60;40.50
38263;DHT22;24054;50.128;19.730;2023-04-22T09:26:43;21.60;40.60
38263;DHT22;24054;50.128;19.730;2023-04-22T09:29:13;21.70;40.50
38263;DHT22;24054;50.128;19.730;2023-04-22T09:31:40;21.70;40.30
38263;DHT22;24054;50.128;19.730;2023-04-22T09:34:08;21.70;40.50
38263;DHT22;24054;50.128;19.730;2023-04-22T09:36:35;21.80;40.70
38263;DHT22;24054;50.128;19.730;2023-04-22T09:39:04;21.80;40.40
38263;DHT22;24054;50.128;19.730;2023-04-22T09:41:33;21.90;40.50
38263;DHT22;24054;50.128;19.730;2023-04-22T09:44:03;21.90;40.60
38263;DHT22;24054;50.128;19.730;2023-04-22T09:46:34;21.90;40.60
38263;DHT22;24054;50.128;19.730;2023-04-22T09:49:01;22.00;40.80
38263;DHT22;24054;50.128;19.730;2023-04-22T09:51:28;22.10;40.90
38263;DHT22;24054;50.128;19.730;2023-04-22T09:53:57;22.10;40.80
38263;DHT22;24054;50.128;19.730;2023-04-22T09:56:42;22.10;40.90
38263;DHT22;24054;50.128;19.730;2023-04-22T09:59:10;22.20;40.90
38263;DHT22;24054;50.128;19.730;2023-04-22T10:01:38;22.20;41.00
38263;DHT22;24054;50.128;19.730;2023-04-22T10:04:05;22.20;41.00
38263;DHT22;24054;50.128;19.730;2023-04-22T10:06:34;22.30;41.20
38263;DHT22;24054;50.128;19.730;2023-04-22T10:09:01;22.30;41.20
38263;DHT22;24054;50.128;19.730;2023-04-22T10:11:30;22.30;41.10
38263;DHT22;24054;50.128;19.730;2023-04-22T10:13:57;22.40;41.20
38263;DHT22;24054;50.128;19.730;2023-04-22T10:16:29;22.40;41.20
38263;DHT22;24054;50.128;19.730;2023-04-22T10:18:58;22.50;41.00
38263;DHT22;24054;50.128;19.730;2023-04-22T10:21:27;22.50;41.10
38263;DHT22;24054;50.128;19.730;2023-04-22T10:23:55;22.50;40.90
38263;DHT22;24054;50.128;19.730;2023-04-22T10:26:41;22.60;41.10
38263;DHT22;24054;50.128;19.730;2023-04-22T10:29:11;22.60;41.10
38263;DHT22;24054;50.128;19.730;2023-04-22T10:31:43;22.70;41.20
38263;DHT22;24054;50.128;19.730;2023-04-22T10:34:11;22.70;41.20
38263;DHT22;24054;50.128;19.730;2023-04-22T10:36:58;22.70;41.20
38263;DHT22;24054;50.128;19.730;2023-04-22T10:39:28;22.70;41.20
38263;DHT22;24054;50.128;19.730;2023-04-22T10:42:06;22.80;41.40
38263;DHT22;24054;50.128;19.730;2023-04-22T10:44:47;22.80;41.60
38263;DHT22;24054;50.128;19.730;2023-04-22T10:47:26;22.90;41.70
38263;DHT22;24054;50.128;19.730;2023-04-22T10:50:20;22.90;41.80
38263;DHT22;24054;50.128;19.730;2023-04-22T10:52:50;23.00;42.10
38263;DHT22;24054;50.128;19.730;2023-04-22T10:55:17;23.00;42.40
38263;DHT22;24054;50.128;19.730;2023-04-22T10:57:46;23.00;42.80
38263;DHT22;24054;50.128;19.730;2023-04-22T11:00:38;23.00;42.90
38263;DHT22;24054;50.128;19.730;2023-04-22T11:03:12;23.10;43.00
38263;DHT22;24054;50.128;19.730;2023-04-22T11:05:40;23.10;43.20
38263;DHT22;24054;50.128;19.730;2023-04-22T11:08:12;23.10;43.40
38263;DHT22;24054;50.128;19.730;2023-04-22T11:10:40;23.10;44.10
38263;DHT22;24054;50.128;19.730;2023-04-22T11:13:09;23.10;43.60
38263;DHT22;24054;50.128;19.730;2023-04-22T11:15:39;23.10;43.60
38263;DHT22;24054;50.128;19.730;2023-04-22T11:18:15;23.10;43.70
38263;DHT22;24054;50.128;19.730;2023-04-22T11:20:43;23.10;43.90
38263;DHT22;24054;50.128;19.730;2023-04-22T11:23:10;23.10;43.90
38263;DHT22;24054;50.128;19.730;2023-04-22T11:25:37;23.10;44.10
38263;DHT22;24054;50.128;19.730;2023-04-22T11:28:04;23.10;44.20
38263;DHT22;24054;50.128;19.730;2023-04-22T11:30:32;23.10;44.30
38263;DHT22;24054;50.128;19.730;2023-04-22T11:32:59;23.10;44.30
38263;DHT22;24054;50.128;19.730;2023-04-22T11:35:29;23.10;44.50
38263;DHT22;24054;50.128;19.730;2023-04-22T11:37:58;23.10;44.50
38263;DHT22;24054;50.128;19.730;2023-04-22T11:40:26;23.10;44.60
38263;DHT22;24054;50.128;19.730;2023-04-22T11:42:55;23.10;44.70
38263;DHT22;24054;50.128;19.730;2023-04-22T11:45:22;23.10;44.90
38263;DHT22;24054;50.128;19.730;2023-04-22T11:47:51;23.10;44.90
38263;DHT22;24054;50.128;19.730;2023-04-22T11:50:22;23.10;45.00
38263;DHT22;24054;50.128;19.730;2023-04-22T11:52:52;23.10;45.10
38263;DHT22;24054;50.128;19.730;2023-04-22T11:55:23;23.10;45.30
38263;DHT22;24054;50.128;19.730;2023-04-22T11:57:53;23.10;45.30
38263;DHT22;24054;50.128;19.730;2023-04-22T12:00:22;23.10;45.50
38263;DHT22;24054;50.128;19.730;2023-04-22T12:03:00;23.20;45.50
38263;DHT22;24054;50.128;19.730;2023-04-22T12:05:39;23.10;45.40
38263;DHT22;24054;50.128;19.730;2023-04-22T12:08:09;23.10;45.30
38263;DHT22;24054;50.128;19.730;2023-04-22T12:10:41;23.10;45.30
38263;DHT22;24054;50.128;19.730;2023-04-22T12:13:09;23.10;45.20
38263;DHT22;24054;50.128;19.730;2023-04-22T12:15:40;23.10;45.10
38263;DHT22;24054;50.128;19.730;2023-04-22T12:18:08;23.20;45.10
38263;DHT22;24054;50.128;19.730;2023-04-22T12:20:37;23.10;44.90
38263;DHT22;24054;50.128;19.730;2023-04-22T12:23:12;23.10;44.90
38263;DHT22;24054;50.128;19.730;2023-04-22T12:25:40;23.10;44.70
38263;DHT22;24054;50.128;19.730;2023-04-22T12:28:07;23.10;44.70
38263;DHT22;24054;50.128;19.730;2023-04-22T12:30:34;23.10;44.50
38263;DHT22;24054;50.128;19.730;2023-04-22T12:33:02;23.10;44.40
38263;DHT22;24054;50.128;19.730;2023-04-22T12:35:29;23.10;44.40
38263;DHT22;24054;50.128;19.730;2023-04-22T12:37:56;23.10;44.20
38263;DHT22;24054;50.128;19.730;2023-04-22T12:40:25;23.10;44.20
38263;DHT22;24054;50.128;19.730;2023-04-22T12:42:52;23.10;44.00
38263;DHT22;24054;50.128;19.730;2023-04-22T12:45:19;23.10;43.90
38263;DHT22;24054;50.128;19.730;2023-04-22T12:47:49;23.10;43.80
38263;DHT22;24054;50.128;19.730;2023-04-22T12:50:18;23.10;43.80
38263;DHT22;24054;50.128;19.730;2023-04-22T12:52:45;23.10;43.70
38263;DHT22;24054;50.128;19.730;2023-04-22T12:55:12;23.00;43.50
38263;DHT22;24054;50.128;19.730;2023-04-22T12:57:41;23.00;43.20
38263;DHT22;24054;50.128;19.730;2023-04-22T13:00:08;23.10;43.20
38263;DHT22;24054;50.128;19.730;2023-04-22T13:02:40;23.10;43.30
38263;DHT22;24054;50.128;19.730;2023-04-22T13:05:07;23.00;43.10
38263;DHT22;24054;50.128;19.730;2023-04-22T13:07:35;23.00;43.00
38263;DHT22;24054;50.128;19.730;2023-04-22T13:10:02;23.00;42.90
38263;DHT22;24054;50.128;19.730;2023-04-22T13:12:30;23.00;42.70
38263;DHT22;24054;50.128;19.730;2023-04-22T13:14:58;23.00;43.30
38263;DHT22;24054;50.128;19.730;2023-04-22T13:17:25;23.00;42.40
38263;DHT22;24054;50.128;19.730;2023-04-22T13:19:52;23.00;42.40
38263;DHT22;24054;50.128;19.730;2023-04-22T13:22:20;23.00;42.40
38263;DHT22;24054;50.128;19.730;2023-04-22T13:24:47;23.00;42.40
38263;DHT22;24054;50.128;19.730;2023-04-22T13:27:15;23.00;42.40
38263;DHT22;24054;50.128;19.730;2023-04-22T13:29:42;23.00;42.40
38263;DHT22;24054;50.128;19.730;2023-04-22T13:32:10;23.00;42.40
38263;DHT22;24054;50.128;19.730;2023-04-22T13:34:38;23.00;42.40
38263;DHT22;24054;50.128;19.730;2023-04-22T13:37:05;23.00;42.40
38263;DHT22;24054;50.128;19.730;2023-04-22T13:39:32;23.00;42.40
38263;DHT22;24054;50.128;19.730;2023-04-22T13:41:59;23.00;42.50
38263;DHT22;24054;50.128;19.730;2023-04-22T13:44:28;22.90;42.30
38263;DHT22;24054;50.128;19.730;2023-04-22T13:46:55;23.00;42.40
38263;DHT22;24054;50.128;19.730;2023-04-22T13:49:24;22.90;42.10
38263;DHT22;24054;50.128;19.730;2023-04-22T13:51:52;22.90;41.90
38263;DHT22;24054;50.128;19.730;2023-04-22T13:54:19;22.90;41.90
38263;DHT22;24054;50.128;19.730;2023-04-22T13:56:47;22.90;41.80
38263;DHT22;24054;50.128;19.730;2023-04-22T13:59:16;22.90;41.70
38263;DHT22;24054;50.128;19.730;2023-04-22T14:01:43;22.90;41.70
38263;DHT22;24054;50.128;19.730;2023-04-22T14:04:11;22.90;41.50
38263;DHT22;24054;50.128;19.730;2023-04-22T14:06:39;22.90;41.60
38263;DHT22;24054;50.128;19.730;2023-04-22T14:09:06;22.90;41.70
38263;DHT22;24054;50.128;19.730;2023-04-22T14:11:34;22.90;41.50
38263;DHT22;24054;50.128;19.730;2023-04-22T14:14:01;22.80;41.40
38263;DHT22;24054;50.128;19.730;2023-04-22T14:16:28;22.80;41.40
38263;DHT22;24054;50.128;19.730;2023-04-22T14:18:55;22.80;41.30
38263;DHT22;24054;50.128;19.730;2023-04-22T14:21:23;22.80;41.20
38263;DHT22;24054;50.128;19.730;2023-04-22T14:23:51;22.80;41.20
38263;DHT22;24054;50.128;19.730;2023-04-22T14:26:18;22.80;41.20
38263;DHT22;24054;50.128;19.730;2023-04-22T14:28:46;22.80;41.30
38263;DHT22;24054;50.128;19.730;2023-04-22T14:31:13;22.80;40.90
38263;DHT22;24054;50.128;19.730;2023-04-22T14:33:40;22.80;41.00
38263;DHT22;24054;50.128;19.730;2023-04-22T14:36:07;22.80;40.60
38263;DHT22;24054;50.128;19.730;2023-04-22T14:38:35;22.80;40.20
38263;DHT22;24054;50.128;19.730;2023-04-22T14:41:04;22.70;40.20
38263;DHT22;24054;50.128;19.730;2023-04-22T14:43:32;22.70;40.10
38263;DHT22;24054;50.128;19.730;2023-04-22T14:46:00;22.70;39.50
38263;DHT22;24054;50.128;19.730;2023-04-22T14:48:28;22.70;39.50
38263;DHT22;24054;50.128;19.730;2023-04-22T14:50:57;22.70;39.80
38263;DHT22;24054;50.128;19.730;2023-04-22T14:53:25;22.60;39.60
38263;DHT22;24054;50.128;19.730;2023-04-22T14:55:52;22.60;39.30
38263;DHT22;24054;50.128;19.730;2023-04-22T14:58:22;22.60;39.00
38263;DHT22;24054;50.128;19.730;2023-04-22T15:00:51;22.60;38.70
38263;DHT22;24054;50.128;19.730;2023-04-22T15:03:18;22.50;39.30
38263;DHT22;24054;50.128;19.730;2023-04-22T15:05:45;22.50;39.00
38263;DHT22;24054;50.128;19.730;2023-04-22T15:08:16;22.50;38.60
38263;DHT22;24054;50.128;19.730;2023-04-22T15:10:43;22.50;38.50
38263;DHT22;24054;50.128;19.730;2023-04-22T15:13:10;22.50;38.30
38263;DHT22;24054;50.128;19.730;2023-04-22T15:15:38;22.50;38.70
38263;DHT22;24054;50.128;19.730;2023-04-22T15:18:05;22.50;38.60
38263;DHT22;24054;50.128;19.730;2023-04-22T15:20:33;22.50;38.90